This is the latest recevied weather packets stored in our database for station/object DL7HMX-13. If no packets are shown the sender has not sent any weather packets the latest 10 day(s).
| Time | Temp. | Humidity | Pressure | Rain* | Wind** | Luminosity | Snow |
|---|---|---|---|---|---|---|---|
| 1777417822 | 10.56° C | 59% | 1019.7 hPa | 0 mm | - | 0 W/m² | - |
| 1777417224 | 10.56° C | 58% | 1019.7 hPa | 0 mm | - | 0 W/m² | - |
| 1777416628 | 11.11° C | 59% | 1019.7 hPa | 0 mm | - | 0 W/m² | - |
| 1777416030 | 11.67° C | 54% | 1019.7 hPa | 0 mm | - | 0 W/m² | - |
| 1777415417 | 11.11° C | 56% | 1019.6 hPa | 0 mm | - | 0 W/m² | - |
| 1777414820 | 11.11° C | 59% | 1019.7 hPa | 0 mm | - | 0 W/m² | - |
| 1777414222 | 11.67° C | 57% | 1019.6 hPa | 0 mm | - | 0 W/m² | - |
| 1777413626 | 11.11° C | 56% | 1019.6 hPa | 0 mm | - | 0 W/m² | - |
| 1777413029 | 11.67° C | 54% | 1019.6 hPa | 0 mm | - | 0 W/m² | - |
| 1777412431 | 11.67° C | 52% | 1019.6 hPa | 0 mm | - | 0 W/m² | - |
| 1777411818 | 12.22° C | 52% | 1019.5 hPa | 0 mm | - | 0 W/m² | - |
| 1777411221 | 12.22° C | 53% | 1019.4 hPa | 0 mm | - | 0 W/m² | - |
| 1777410623 | 12.22° C | 53% | 1019.3 hPa | 0 mm | - | 0 W/m² | - |
| 1777410026 | 12.22° C | 52% | 1019.4 hPa | 0 mm | - | 0 W/m² | - |
| 1777409430 | 12.78° C | 51% | 1019.3 hPa | 0 mm | - | 0 W/m² | - |
| 1777408831 | 12.78° C | 50% | 1019.2 hPa | 0 mm | - | 0 W/m² | - |
| 1777408218 | 12.78° C | 50% | 1019.1 hPa | 0 mm | - | 0 W/m² | - |
| 1777407621 | 12.22° C | 51% | 1019.1 hPa | 0 mm | - | 0 W/m² | - |
| 1777407023 | 12.78° C | 52% | 1019 hPa | 0 mm | - | 0 W/m² | - |
| 1777406426 | 13.89° C | 46% | 1018.8 hPa | 0 mm | - | 0 W/m² | - |
| 1777405829 | 14.44° C | 44% | 1018.7 hPa | 0 mm | - | 0 W/m² | - |
| 1777405231 | 13.89° C | 45% | 1018.6 hPa | 0 mm | - | 0 W/m² | - |
| 1777404617 | 13.89° C | 46% | 1018.5 hPa | 0 mm | - | 0 W/m² | - |
| 1777404020 | 14.44° C | 45% | 1018.4 hPa | 0 mm | - | 0 W/m² | - |
| 1777403422 | 14.44° C | 44% | 1018.3 hPa | 0 mm | - | 0 W/m² | - |
* Rain latest hour (hover to see other rain measurements)
** Current wind speed in m/s (hover to see current wind gust speed)